sensor_id;sensor_type;location;lat;lon;timestamp;pressure;altitude;pressure_sealevel;temperature;humidity
35918;BME280;22011;59.912;30.300;2023-04-30T00:00:36;101372.97;;;8.06;43.05
35918;BME280;22011;59.912;30.300;2023-04-30T00:03:04;101373.09;;;8.04;42.39
35918;BME280;22011;59.912;30.300;2023-04-30T00:05:32;101375.31;;;7.99;42.87
35918;BME280;22011;59.912;30.300;2023-04-30T00:07:59;101366.66;;;7.97;43.02
35918;BME280;22011;59.912;30.300;2023-04-30T00:10:26;101368.47;;;7.97;42.96
35918;BME280;22011;59.912;30.300;2023-04-30T00:12:55;101362.88;;;8.00;43.24
35918;BME280;22011;59.912;30.300;2023-04-30T00:15:23;101352.13;;;8.01;43.74
35918;BME280;22011;59.912;30.300;2023-04-30T00:17:50;101347.53;;;8.03;43.40
35918;BME280;22011;59.912;30.300;2023-04-30T00:20:18;101336.78;;;8.05;44.13
35918;BME280;22011;59.912;30.300;2023-04-30T00:22:45;101321.44;;;8.08;43.08
35918;BME280;22011;59.912;30.300;2023-04-30T00:25:12;101320.19;;;8.12;42.91
35918;BME280;22011;59.912;30.300;2023-04-30T00:27:41;101310.53;;;8.11;43.81
35918;BME280;22011;59.912;30.300;2023-04-30T00:30:11;101317.13;;;8.17;44.12
35918;BME280;22011;59.912;30.300;2023-04-30T00:32:40;101313.75;;;8.15;42.90
35918;BME280;22011;59.912;30.300;2023-04-30T00:35:08;101302.03;;;8.17;43.25
35918;BME280;22011;59.912;30.300;2023-04-30T00:37:36;101305.41;;;8.19;43.53
35918;BME280;22011;59.912;30.300;2023-04-30T00:40:05;101304.41;;;8.20;43.10
35918;BME280;22011;59.912;30.300;2023-04-30T00:42:32;101299.81;;;8.23;43.09
35918;BME280;22011;59.912;30.300;2023-04-30T00:45:00;101292.69;;;8.23;42.79
35918;BME280;22011;59.912;30.300;2023-04-30T00:47:29;101298.13;;;8.22;43.06
35918;BME280;22011;59.912;30.300;2023-04-30T00:49:57;101287.09;;;8.16;43.23
35918;BME280;22011;59.912;30.300;2023-04-30T00:52:25;101280.53;;;8.20;43.04
35918;BME280;22011;59.912;30.300;2023-04-30T00:54:53;101283.19;;;8.20;42.93
35918;BME280;22011;59.912;30.300;2023-04-30T00:57:21;101268.94;;;8.22;42.65
35918;BME280;22011;59.912;30.300;2023-04-30T00:59:49;101262.66;;;8.23;42.94
35918;BME280;22011;59.912;30.300;2023-04-30T01:02:18;101255.66;;;8.22;42.89
35918;BME280;22011;59.912;30.300;2023-04-30T01:04:47;101254.69;;;8.23;43.05
35918;BME280;22011;59.912;30.300;2023-04-30T01:07:15;101256.50;;;8.22;43.00
35918;BME280;22011;59.912;30.300;2023-04-30T01:09:43;101250.22;;;8.23;42.81
35918;BME280;22011;59.912;30.300;2023-04-30T01:12:15;101246.31;;;8.27;42.66
35918;BME280;22011;59.912;30.300;2023-04-30T01:14:53;101238.19;;;8.29;43.15
35918;BME280;22011;59.912;30.300;2023-04-30T01:17:31;101235.41;;;8.30;43.00
35918;BME280;22011;59.912;30.300;2023-04-30T01:20:02;101241.84;;;8.28;42.83
35918;BME280;22011;59.912;30.300;2023-04-30T01:22:35;101223.13;;;8.29;43.17
35918;BME280;22011;59.912;30.300;2023-04-30T01:25:27;101215.16;;;8.39;43.21
35918;BME280;22011;59.912;30.300;2023-04-30T01:28:01;101220.75;;;8.36;42.63
35918;BME280;22011;59.912;30.300;2023-04-30T01:30:30;101215.00;;;8.31;42.51
35918;BME280;22011;59.912;30.300;2023-04-30T01:32:58;101206.34;;;8.29;42.49
35918;BME280;22011;59.912;30.300;2023-04-30T01:35:39;101204.09;;;8.43;42.82
35918;BME280;22011;59.912;30.300;2023-04-30T01:38:17;101200.63;;;8.43;42.85
35918;BME280;22011;59.912;30.300;2023-04-30T01:40:52;101191.53;;;8.45;42.29
35918;BME280;22011;59.912;30.300;2023-04-30T01:43:28;101187.47;;;8.51;42.20
35918;BME280;22011;59.912;30.300;2023-04-30T01:46:10;101185.94;;;8.58;42.08
35918;BME280;22011;59.912;30.300;2023-04-30T01:48:47;101176.44;;;8.56;42.02
35918;BME280;22011;59.912;30.300;2023-04-30T01:51:27;101176.84;;;8.61;42.15
35918;BME280;22011;59.912;30.300;2023-04-30T01:54:10;101163.16;;;8.56;41.77
35918;BME280;22011;59.912;30.300;2023-04-30T01:56:59;101159.38;;;8.58;42.06
35918;BME280;22011;59.912;30.300;2023-04-30T01:59:33;101152.09;;;8.60;42.19
35918;BME280;22011;59.912;30.300;2023-04-30T02:02:02;101141.75;;;8.57;41.94
35918;BME280;22011;59.912;30.300;2023-04-30T02:04:29;101135.19;;;8.61;42.14
35918;BME280;22011;59.912;30.300;2023-04-30T02:06:56;101136.00;;;8.62;41.87
35918;BME280;22011;59.912;30.300;2023-04-30T02:09:24;101131.41;;;8.64;42.22
35918;BME280;22011;59.912;30.300;2023-04-30T02:11:52;101133.22;;;8.63;42.35
35918;BME280;22011;59.912;30.300;2023-04-30T02:14:19;101124.13;;;8.66;42.51
35918;BME280;22011;59.912;30.300;2023-04-30T02:16:53;101127.47;;;8.68;42.73
35918;BME280;22011;59.912;30.300;2023-04-30T02:19:21;101114.75;;;8.71;43.08
35918;BME280;22011;59.912;30.300;2023-04-30T02:21:49;101104.13;;;8.71;42.71
35918;BME280;22011;59.912;30.300;2023-04-30T02:24:16;101093.19;;;8.74;42.77
35918;BME280;22011;59.912;30.300;2023-04-30T02:26:43;101091.94;;;8.78;43.01
35918;BME280;22011;59.912;30.300;2023-04-30T02:29:11;101101.88;;;8.76;43.07
35918;BME280;22011;59.912;30.300;2023-04-30T02:31:38;101087.75;;;8.76;43.17
35918;BME280;22011;59.912;30.300;2023-04-30T02:34:11;101086.63;;;8.78;43.64
35918;BME280;22011;59.912;30.300;2023-04-30T02:36:38;101084.41;;;8.74;43.75
35918;BME280;22011;59.912;30.300;2023-04-30T02:39:06;101088.72;;;8.75;43.72
35918;BME280;22011;59.912;30.300;2023-04-30T02:41:34;101076.81;;;8.79;44.16
35918;BME280;22011;59.912;30.300;2023-04-30T02:44:01;101081.56;;;8.85;44.14
35918;BME280;22011;59.912;30.300;2023-04-30T02:46:28;101076.09;;;8.87;43.85
35918;BME280;22011;59.912;30.300;2023-04-30T02:48:56;101063.50;;;8.89;43.52
35918;BME280;22011;59.912;30.300;2023-04-30T02:51:25;101072.16;;;8.91;44.20
35918;BME280;22011;59.912;30.300;2023-04-30T02:53:53;101065.31;;;8.88;44.13
35918;BME280;22011;59.912;30.300;2023-04-30T02:56:21;101059.47;;;8.84;44.13
35918;BME280;22011;59.912;30.300;2023-04-30T02:58:48;101063.09;;;8.83;44.19
35918;BME280;22011;59.912;30.300;2023-04-30T03:01:16;101058.78;;;8.82;44.55
35918;BME280;22011;59.912;30.300;2023-04-30T03:03:43;101061.44;;;8.82;44.40
35918;BME280;22011;59.912;30.300;2023-04-30T03:06:11;101054.84;;;8.87;44.10
35918;BME280;22011;59.912;30.300;2023-04-30T03:08:39;101053.56;;;8.91;44.56
35918;BME280;22011;59.912;30.300;2023-04-30T03:11:07;101049.78;;;8.93;44.12
35918;BME280;22011;59.912;30.300;2023-04-30T03:13:34;101040.53;;;8.97;44.21
35918;BME280;22011;59.912;30.300;2023-04-30T03:16:03;101036.44;;;9.03;43.74
35918;BME280;22011;59.912;30.300;2023-04-30T03:18:31;101028.16;;;9.06;44.03
35918;BME280;22011;59.912;30.300;2023-04-30T03:20:58;101028.00;;;9.07;43.96
35918;BME280;22011;59.912;30.300;2023-04-30T03:23:26;101020.72;;;9.09;43.47
35918;BME280;22011;59.912;30.300;2023-04-30T03:25:55;101033.56;;;9.14;43.40
35918;BME280;22011;59.912;30.300;2023-04-30T03:28:23;101031.75;;;9.14;43.35
35918;BME280;22011;59.912;30.300;2023-04-30T03:30:51;101022.94;;;9.14;43.54
35918;BME280;22011;59.912;30.300;2023-04-30T03:33:19;101017.47;;;9.15;43.11
35918;BME280;22011;59.912;30.300;2023-04-30T03:35:46;101018.31;;;9.16;43.77
35918;BME280;22011;59.912;30.300;2023-04-30T03:38:14;101011.56;;;9.22;43.42
35918;BME280;22011;59.912;30.300;2023-04-30T03:40:42;101013.91;;;9.25;42.85
35918;BME280;22011;59.912;30.300;2023-04-30T03:43:11;101009.28;;;9.27;42.85
35918;BME280;22011;59.912;30.300;2023-04-30T03:45:38;101006.63;;;9.27;43.01
35918;BME280;22011;59.912;30.300;2023-04-30T03:48:05;100990.53;;;9.28;43.10
35918;BME280;22011;59.912;30.300;2023-04-30T03:50:33;100996.53;;;9.30;43.38
35918;BME280;22011;59.912;30.300;2023-04-30T03:53:01;100980.41;;;9.32;43.19
35918;BME280;22011;59.912;30.300;2023-04-30T03:55:28;100977.59;;;9.33;42.85
35918;BME280;22011;59.912;30.300;2023-04-30T03:57:56;100970.31;;;9.35;43.43
35918;BME280;22011;59.912;30.300;2023-04-30T04:00:25;100970.81;;;9.39;43.05
35918;BME280;22011;59.912;30.300;2023-04-30T04:02:53;100958.19;;;9.41;43.37
35918;BME280;22011;59.912;30.300;2023-04-30T04:05:21;100954.63;;;9.50;42.53
35918;BME280;22011;59.912;30.300;2023-04-30T04:07:48;100954.69;;;9.58;42.29
35918;BME280;22011;59.912;30.300;2023-04-30T04:10:15;100950.56;;;9.64;42.17
35918;BME280;22011;59.912;30.300;2023-04-30T04:12:43;100940.63;;;9.66;41.64
35918;BME280;22011;59.912;30.300;2023-04-30T04:15:11;100942.97;;;9.69;41.77
35918;BME280;22011;59.912;30.300;2023-04-30T04:17:40;100945.16;;;9.73;42.03
35918;BME280;22011;59.912;30.300;2023-04-30T04:20:08;100950.03;;;9.78;42.11
35918;BME280;22011;59.912;30.300;2023-04-30T04:22:37;100948.34;;;9.77;42.15
35918;BME280;22011;59.912;30.300;2023-04-30T04:25:05;100943.03;;;9.77;41.97
35918;BME280;22011;59.912;30.300;2023-04-30T04:27:34;100938.69;;;9.76;42.40
35918;BME280;22011;59.912;30.300;2023-04-30T04:30:02;100937.41;;;9.80;42.07
35918;BME280;22011;59.912;30.300;2023-04-30T04:32:30;100930.09;;;9.82;42.05
35918;BME280;22011;59.912;30.300;2023-04-30T04:34:59;100941.63;;;9.91;41.66
35918;BME280;22011;59.912;30.300;2023-04-30T04:37:27;100929.84;;;9.93;41.67
35918;BME280;22011;59.912;30.300;2023-04-30T04:39:54;100921.53;;;9.96;41.60
35918;BME280;22011;59.912;30.300;2023-04-30T04:42:22;100919.56;;;9.98;41.82
35918;BME280;22011;59.912;30.300;2023-04-30T04:44:49;100923.72;;;10.01;41.37
35918;BME280;22011;59.912;30.300;2023-04-30T04:47:17;100923.56;;;10.02;41.62
35918;BME280;22011;59.912;30.300;2023-04-30T04:49:47;100921.75;;;10.29;41.90
35918;BME280;22011;59.912;30.300;2023-04-30T04:52:16;100914.75;;;10.02;41.85
35918;BME280;22011;59.912;30.300;2023-04-30T04:54:43;100928.22;;;10.00;41.78
35918;BME280;22011;59.912;30.300;2023-04-30T04:57:11;100933.03;;;9.97;41.74
35918;BME280;22011;59.912;30.300;2023-04-30T04:59:38;100934.69;;;9.98;41.29
35918;BME280;22011;59.912;30.300;2023-04-30T05:02:06;100926.03;;;9.96;41.66
35918;BME280;22011;59.912;30.300;2023-04-30T05:04:34;100929.53;;;9.96;42.13
35918;BME280;22011;59.912;30.300;2023-04-30T05:07:01;100927.91;;;10.03;41.67
35918;BME280;22011;59.912;30.300;2023-04-30T05:09:30;100923.63;;;10.10;41.62
35918;BME280;22011;59.912;30.300;2023-04-30T05:11:58;100921.31;;;10.15;41.36
35918;BME280;22011;59.912;30.300;2023-04-30T05:14:25;100922.38;;;10.23;41.36
35918;BME280;22011;59.912;30.300;2023-04-30T05:16:52;100925.59;;;10.34;41.47
35918;BME280;22011;59.912;30.300;2023-04-30T05:19:20;100922.78;;;10.44;40.93
35918;BME280;22011;59.912;30.300;2023-04-30T05:21:47;100927.28;;;10.43;41.32
35918;BME280;22011;59.912;30.300;2023-04-30T05:24:14;100928.63;;;10.39;41.43
35918;BME280;22011;59.912;30.300;2023-04-30T05:26:44;100923.78;;;10.43;41.06
35918;BME280;22011;59.912;30.300;2023-04-30T05:29:11;100906.97;;;10.42;40.90
35918;BME280;22011;59.912;30.300;2023-04-30T05:31:39;100899.47;;;10.46;40.54
35918;BME280;22011;59.912;30.300;2023-04-30T05:34:06;100891.34;;;10.47;40.52
35918;BME280;22011;59.912;30.300;2023-04-30T05:36:34;100895.34;;;10.52;40.37
35918;BME280;22011;59.912;30.300;2023-04-30T05:39:01;100881.84;;;10.53;40.41
35918;BME280;22011;59.912;30.300;2023-04-30T05:41:29;100885.53;;;10.60;40.02
35918;BME280;22011;59.912;30.300;2023-04-30T05:43:58;100900.22;;;10.72;40.12
35918;BME280;22011;59.912;30.300;2023-04-30T05:46:27;100915.09;;;10.83;39.98
35918;BME280;22011;59.912;30.300;2023-04-30T05:48:55;100914.28;;;10.91;40.01
35918;BME280;22011;59.912;30.300;2023-04-30T05:51:22;100900.63;;;10.94;39.54
35918;BME280;22011;59.912;30.300;2023-04-30T05:53:50;100888.47;;;10.99;39.55
35918;BME280;22011;59.912;30.300;2023-04-30T05:56:17;100890.97;;;11.09;39.85
35918;BME280;22011;59.912;30.300;2023-04-30T05:58:45;100886.47;;;11.18;39.31
35918;BME280;22011;59.912;30.300;2023-04-30T06:01:14;100885.97;;;11.22;39.66
35918;BME280;22011;59.912;30.300;2023-04-30T06:03:42;100880.81;;;11.21;39.60
35918;BME280;22011;59.912;30.300;2023-04-30T06:06:09;100890.16;;;11.17;39.94
35918;BME280;22011;59.912;30.300;2023-04-30T06:08:37;100883.81;;;11.18;40.03
35918;BME280;22011;59.912;30.300;2023-04-30T06:11:07;100883.47;;;11.21;40.17
35918;BME280;22011;59.912;30.300;2023-04-30T06:13:34;100900.66;;;11.26;39.80
35918;BME280;22011;59.912;30.300;2023-04-30T06:16:02;100892.00;;;11.40;39.36
35918;BME280;22011;59.912;30.300;2023-04-30T06:18:30;100896.94;;;11.52;39.73
35918;BME280;22011;59.912;30.300;2023-04-30T06:20:58;100888.78;;;11.61;39.04
35918;BME280;22011;59.912;30.300;2023-04-30T06:23:25;100896.59;;;11.71;38.79
35918;BME280;22011;59.912;30.300;2023-04-30T06:25:53;100892.59;;;11.75;39.53
35918;BME280;22011;59.912;30.300;2023-04-30T06:28:20;100900.28;;;11.86;39.33
35918;BME280;22011;59.912;30.300;2023-04-30T06:30:48;100899.91;;;11.97;39.44
35918;BME280;22011;59.912;30.300;2023-04-30T06:33:15;100892.22;;;12.10;38.65
35918;BME280;22011;59.912;30.300;2023-04-30T06:35:44;100884.97;;;12.27;38.16
35918;BME280;22011;59.912;30.300;2023-04-30T06:38:12;100880.03;;;12.47;37.26
35918;BME280;22011;59.912;30.300;2023-04-30T06:40:40;100876.16;;;12.50;36.69
35918;BME280;22011;59.912;30.300;2023-04-30T06:43:07;100872.66;;;12.49;36.87
35918;BME280;22011;59.912;30.300;2023-04-30T06:45:35;100880.63;;;12.57;36.44
35918;BME280;22011;59.912;30.300;2023-04-30T06:48:02;100884.66;;;12.53;36.98
35918;BME280;22011;59.912;30.300;2023-04-30T06:50:30;100889.16;;;12.53;37.01
35918;BME280;22011;59.912;30.300;2023-04-30T06:52:59;100887.28;;;12.61;36.83
35918;BME280;22011;59.912;30.300;2023-04-30T06:55:26;100893.47;;;12.62;36.76
35918;BME280;22011;59.912;30.300;2023-04-30T06:57:54;100885.41;;;12.70;36.87
35918;BME280;22011;59.912;30.300;2023-04-30T07:00:23;100885.34;;;12.78;37.11
35918;BME280;22011;59.912;30.300;2023-04-30T07:02:51;100894.81;;;12.89;36.43
35918;BME280;22011;59.912;30.300;2023-04-30T07:05:18;100887.81;;;12.88;36.11
35918;BME280;22011;59.912;30.300;2023-04-30T07:07:46;100897.97;;;12.92;36.19
35918;BME280;22011;59.912;30.300;2023-04-30T07:10:15;100897.78;;;12.94;36.76
35918;BME280;22011;59.912;30.300;2023-04-30T07:12:43;100868.44;;;12.86;36.73
35918;BME280;22011;59.912;30.300;2023-04-30T07:15:11;100871.03;;;12.71;36.83
35918;BME280;22011;59.912;30.300;2023-04-30T07:17:38;100889.97;;;12.61;37.54
35918;BME280;22011;59.912;30.300;2023-04-30T07:20:07;100890.31;;;12.58;37.59
35918;BME280;22011;59.912;30.300;2023-04-30T07:22:35;100884.47;;;12.55;38.09
35918;BME280;22011;59.912;30.300;2023-04-30T07:25:03;100882.81;;;12.54;38.20
35918;BME280;22011;59.912;30.300;2023-04-30T07:27:35;100892.16;;;12.58;38.48
35918;BME280;22011;59.912;30.300;2023-04-30T07:30:02;100896.91;;;12.48;38.67
35918;BME280;22011;59.912;30.300;2023-04-30T07:32:30;100895.41;;;12.45;39.61
35918;BME280;22011;59.912;30.300;2023-04-30T07:34:59;100894.44;;;12.38;39.04
35918;BME280;22011;59.912;30.300;2023-04-30T07:37:27;100905.16;;;12.30;39.67
35918;BME280;22011;59.912;30.300;2023-04-30T07:39:54;100908.00;;;12.28;40.44
35918;BME280;22011;59.912;30.300;2023-04-30T07:42:22;100901.13;;;12.34;41.30
35918;BME280;22011;59.912;30.300;2023-04-30T07:44:51;100908.16;;;12.35;41.83
35918;BME280;22011;59.912;30.300;2023-04-30T07:47:19;100903.66;;;12.27;43.34
35918;BME280;22011;59.912;30.300;2023-04-30T07:49:46;100908.03;;;12.20;43.73
35918;BME280;22011;59.912;30.300;2023-04-30T07:52:14;100904.53;;;12.20;43.57
35918;BME280;22011;59.912;30.300;2023-04-30T07:54:42;100909.88;;;12.20;43.41
35918;BME280;22011;59.912;30.300;2023-04-30T07:57:11;100913.56;;;12.19;43.08
35918;BME280;22011;59.912;30.300;2023-04-30T07:59:39;100911.06;;;12.17;43.44
35918;BME280;22011;59.912;30.300;2023-04-30T08:02:08;100928.88;;;12.25;43.16
35918;BME280;22011;59.912;30.300;2023-04-30T08:04:35;100923.19;;;12.28;43.61
35918;BME280;22011;59.912;30.300;2023-04-30T08:07:03;100925.56;;;12.23;43.55
35918;BME280;22011;59.912;30.300;2023-04-30T08:09:30;100917.88;;;12.20;43.20
35918;BME280;22011;59.912;30.300;2023-04-30T08:11:57;100924.56;;;12.16;43.97
35918;BME280;22011;59.912;30.300;2023-04-30T08:14:25;100930.59;;;12.09;43.84
35918;BME280;22011;59.912;30.300;2023-04-30T08:16:52;100926.59;;;12.14;43.97
35918;BME280;22011;59.912;30.300;2023-04-30T08:19:21;100928.75;;;12.18;45.12
35918;BME280;22011;59.912;30.300;2023-04-30T08:21:48;100933.59;;;12.15;44.82
35918;BME280;22011;59.912;30.300;2023-04-30T08:24:16;100937.28;;;12.14;45.09
35918;BME280;22011;59.912;30.300;2023-04-30T08:26:44;100925.25;;;12.09;45.92
35918;BME280;22011;59.912;30.300;2023-04-30T08:29:11;100944.47;;;12.05;45.38
35918;BME280;22011;59.912;30.300;2023-04-30T08:31:38;100942.13;;;12.02;46.02
35918;BME280;22011;59.912;30.300;2023-04-30T08:34:06;100946.66;;;11.93;47.31
35918;BME280;22011;59.912;30.300;2023-04-30T08:36:35;100935.81;;;11.87;48.36
35918;BME280;22011;59.912;30.300;2023-04-30T08:39:02;100960.81;;;11.69;49.89
35918;BME280;22011;59.912;30.300;2023-04-30T08:41:31;100975.66;;;11.56;51.94
35918;BME280;22011;59.912;30.300;2023-04-30T08:44:00;100971.19;;;11.32;52.48
35918;BME280;22011;59.912;30.300;2023-04-30T08:46:30;100972.97;;;11.15;54.10
35918;BME280;22011;59.912;30.300;2023-04-30T08:48:58;100980.94;;;10.99;56.29
35918;BME280;22011;59.912;30.300;2023-04-30T08:51:26;100991.91;;;10.88;57.32
35918;BME280;22011;59.912;30.300;2023-04-30T08:53:55;100995.53;;;10.78;57.42
35918;BME280;22011;59.912;30.300;2023-04-30T08:56:24;100998.81;;;10.64;59.71
35918;BME280;22011;59.912;30.300;2023-04-30T08:58:51;100995.63;;;10.61;60.20
35918;BME280;22011;59.912;30.300;2023-04-30T09:01:19;101008.59;;;10.56;61.36
35918;BME280;22011;59.912;30.300;2023-04-30T09:03:47;101012.50;;;10.43;60.64
35918;BME280;22011;59.912;30.300;2023-04-30T09:06:15;101016.00;;;10.36;61.66
35918;BME280;22011;59.912;30.300;2023-04-30T09:08:43;101019.91;;;10.24;62.18
35918;BME280;22011;59.912;30.300;2023-04-30T09:11:23;101020.44;;;10.27;63.62
35918;BME280;22011;59.912;30.300;2023-04-30T09:13:52;101019.78;;;10.07;64.17
35918;BME280;22011;59.912;30.300;2023-04-30T09:16:20;101029.22;;;10.02;64.42
35918;BME280;22011;59.912;30.300;2023-04-30T09:18:48;101029.69;;;9.97;65.51
35918;BME280;22011;59.912;30.300;2023-04-30T09:21:16;101033.34;;;9.96;65.80
35918;BME280;22011;59.912;30.300;2023-04-30T09:23:56;101026.09;;;10.06;66.68
35918;BME280;22011;59.912;30.300;2023-04-30T09:26:30;101027.16;;;9.96;67.12
35918;BME280;22011;59.912;30.300;2023-04-30T09:28:58;101041.34;;;9.78;67.09
35918;BME280;22011;59.912;30.300;2023-04-30T09:31:27;101040.44;;;9.70;67.45
35918;BME280;22011;59.912;30.300;2023-04-30T09:33:54;101036.63;;;9.72;68.46
35918;BME280;22011;59.912;30.300;2023-04-30T09:36:22;101034.72;;;9.82;68.10
35918;BME280;22011;59.912;30.300;2023-04-30T09:38:49;101035.09;;;9.88;68.84
35918;BME280;22011;59.912;30.300;2023-04-30T09:41:21;101025.28;;;9.88;67.79
35918;BME280;22011;59.912;30.300;2023-04-30T09:43:51;101037.06;;;9.86;67.33
35918;BME280;22011;59.912;30.300;2023-04-30T09:46:19;101042.63;;;9.74;67.94
35918;BME280;22011;59.912;30.300;2023-04-30T09:48:55;101033.50;;;9.77;68.00
35918;BME280;22011;59.912;30.300;2023-04-30T09:51:23;101048.72;;;9.67;68.03
35918;BME280;22011;59.912;30.300;2023-04-30T09:53:52;101043.00;;;9.62;68.08
35918;BME280;22011;59.912;30.300;2023-04-30T09:56:20;101049.84;;;9.64;68.50
35918;BME280;22011;59.912;30.300;2023-04-30T09:58:51;101053.03;;;9.68;68.34
35918;BME280;22011;59.912;30.300;2023-04-30T10:01:20;101051.81;;;9.62;68.08
35918;BME280;22011;59.912;30.300;2023-04-30T10:03:48;101054.63;;;9.61;68.25
35918;BME280;22011;59.912;30.300;2023-04-30T10:06:16;101056.84;;;9.65;69.59
35918;BME280;22011;59.912;30.300;2023-04-30T10:08:46;101050.69;;;9.65;68.66
35918;BME280;22011;59.912;30.300;2023-04-30T10:11:17;101062.53;;;9.70;69.28
35918;BME280;22011;59.912;30.300;2023-04-30T10:13:53;101061.03;;;9.68;70.15
35918;BME280;22011;59.912;30.300;2023-04-30T10:16:29;101060.03;;;9.69;70.90
35918;BME280;22011;59.912;30.300;2023-04-30T10:19:05;101067.19;;;9.68;70.49
35918;BME280;22011;59.912;30.300;2023-04-30T10:21:34;101065.28;;;9.61;70.69
35918;BME280;22011;59.912;30.300;2023-04-30T10:24:02;101057.97;;;9.63;71.25
35918;BME280;22011;59.912;30.300;2023-04-30T10:26:30;101055.31;;;9.63;71.33
35918;BME280;22011;59.912;30.300;2023-04-30T10:29:00;101051.38;;;9.67;71.48
35918;BME280;22011;59.912;30.300;2023-04-30T10:31:29;101062.31;;;9.64;71.02
35918;BME280;22011;59.912;30.300;2023-04-30T10:34:05;101054.56;;;9.70;71.67
35918;BME280;22011;59.912;30.300;2023-04-30T10:36:38;101062.63;;;9.61;70.88
35918;BME280;22011;59.912;30.300;2023-04-30T10:39:07;101063.53;;;9.51;71.66
35918;BME280;22011;59.912;30.300;2023-04-30T10:41:35;101061.16;;;9.48;71.61
35918;BME280;22011;59.912;30.300;2023-04-30T10:44:03;101064.66;;;9.49;71.87
35918;BME280;22011;59.912;30.300;2023-04-30T10:46:34;101063.44;;;9.43;71.98
35918;BME280;22011;59.912;30.300;2023-04-30T10:49:02;101060.41;;;9.38;72.22
35918;BME280;22011;59.912;30.300;2023-04-30T10:51:46;101065.03;;;9.54;72.87
35918;BME280;22011;59.912;30.300;2023-04-30T10:54:15;101057.75;;;9.38;72.11
35918;BME280;22011;59.912;30.300;2023-04-30T10:56:44;101066.41;;;9.40;71.93
35918;BME280;22011;59.912;30.300;2023-04-30T10:59:14;101072.09;;;9.45;71.83
35918;BME280;22011;59.912;30.300;2023-04-30T11:01:55;101067.41;;;9.57;72.44
35918;BME280;22011;59.912;30.300;2023-04-30T11:04:23;101061.63;;;9.44;71.46
35918;BME280;22011;59.912;30.300;2023-04-30T11:07:00;101069.69;;;9.52;71.95
35918;BME280;22011;59.912;30.300;2023-04-30T11:09:35;101074.31;;;9.50;71.70
35918;BME280;22011;59.912;30.300;2023-04-30T11:12:08;101062.44;;;9.44;71.56
35918;BME280;22011;59.912;30.300;2023-04-30T11:14:41;101070.97;;;9.48;71.81
35918;BME280;22011;59.912;30.300;2023-04-30T11:17:10;101074.38;;;9.40;72.00
35918;BME280;22011;59.912;30.300;2023-04-30T11:19:45;101077.50;;;9.54;72.32
35918;BME280;22011;59.912;30.300;2023-04-30T11:22:18;101075.44;;;9.47;71.71
35918;BME280;22011;59.912;30.300;2023-04-30T11:24:52;101095.22;;;9.45;72.19
35918;BME280;22011;59.912;30.300;2023-04-30T11:27:22;101092.00;;;9.41;72.05
35918;BME280;22011;59.912;30.300;2023-04-30T11:29:52;101089.50;;;9.40;72.08
35918;BME280;22011;59.912;30.300;2023-04-30T11:32:20;101088.16;;;9.36;71.70
35918;BME280;22011;59.912;30.300;2023-04-30T11:34:48;101099.31;;;9.39;71.85
35918;BME280;22011;59.912;30.300;2023-04-30T11:37:18;101091.72;;;9.44;71.78
35918;BME280;22011;59.912;30.300;2023-04-30T11:39:47;101093.69;;;9.42;71.00
35918;BME280;22011;59.912;30.300;2023-04-30T11:42:15;101093.00;;;9.40;70.79
35918;BME280;22011;59.912;30.300;2023-04-30T11:44:44;101095.06;;;9.46;71.50
35918;BME280;22011;59.912;30.300;2023-04-30T11:47:13;101096.13;;;9.54;71.20
35918;BME280;22011;59.912;30.300;2023-04-30T11:49:41;101091.50;;;9.56;70.45
35918;BME280;22011;59.912;30.300;2023-04-30T11:52:08;101084.88;;;9.60;70.38
35918;BME280;22011;59.912;30.300;2023-04-30T11:54:38;101083.22;;;9.59;70.52
35918;BME280;22011;59.912;30.300;2023-04-30T11:57:06;101083.38;;;9.57;70.72
35918;BME280;22011;59.912;30.300;2023-04-30T11:59:39;101091.88;;;9.61;71.27
35918;BME280;22011;59.912;30.300;2023-04-30T12:02:07;101083.59;;;9.46;70.45
35918;BME280;22011;59.912;30.300;2023-04-30T12:04:36;101092.41;;;9.46;70.29
35918;BME280;22011;59.912;30.300;2023-04-30T12:07:06;101094.22;;;9.46;70.65
35918;BME280;22011;59.912;30.300;2023-04-30T12:09:52;101090.22;;;9.60;71.40
35918;BME280;22011;59.912;30.300;2023-04-30T12:12:27;101079.72;;;9.58;71.81
35918;BME280;22011;59.912;30.300;2023-04-30T12:14:54;101076.69;;;9.53;71.44
35918;BME280;22011;59.912;30.300;2023-04-30T12:17:32;101082.00;;;9.71;71.20
35918;BME280;22011;59.912;30.300;2023-04-30T12:20:01;101081.41;;;9.59;70.29
35918;BME280;22011;59.912;30.300;2023-04-30T12:22:30;101077.59;;;9.62;70.14
35918;BME280;22011;59.912;30.300;2023-04-30T12:24:58;101072.81;;;9.65;69.62
35918;BME280;22011;59.912;30.300;2023-04-30T12:27:27;101070.53;;;9.70;70.02
35918;BME280;22011;59.912;30.300;2023-04-30T12:29:55;101062.47;;;9.80;69.80
35918;BME280;22011;59.912;30.300;2023-04-30T12:32:22;101060.88;;;9.87;69.06
35918;BME280;22011;59.912;30.300;2023-04-30T12:34:50;101060.88;;;9.87;68.79
35918;BME280;22011;59.912;30.300;2023-04-30T12:37:19;101065.88;;;9.90;69.20
35918;BME280;22011;59.912;30.300;2023-04-30T12:39:47;101069.31;;;9.82;67.99
35918;BME280;22011;59.912;30.300;2023-04-30T12:42:17;101073.03;;;9.90;69.57
35918;BME280;22011;59.912;30.300;2023-04-30T12:44:45;101066.56;;;9.92;69.05
35918;BME280;22011;59.912;30.300;2023-04-30T12:47:13;101064.97;;;9.99;69.46
35918;BME280;22011;59.912;30.300;2023-04-30T12:49:44;101067.53;;;10.09;68.94
35918;BME280;22011;59.912;30.300;2023-04-30T12:52:11;101076.28;;;10.37;68.97
35918;BME280;22011;59.912;30.300;2023-04-30T12:54:42;101078.56;;;10.14;68.47